Time;durP1;ratioP1;P1;durP2;ratioP2;P2;SDS_P1;SDS_P2;PMS_P1;PMS_P2;Temp;Humidity;BMP_temperature;BMP_pressure;BME280_temperature;BME280_humidity;BME280_pressure;Samples;Min_cycle;Max_cycle;Signal;HPM_P1;HPM_P2
2024/01/19 00:01:40;;;;;;;48.10;21.20;;;;;;;-128.00;-1.00;-1.00;100082;1283;1003810;-31
2024/01/19 00:04:06;;;;;;;49.40;21.30;;;;;;;-128.00;-1.00;-1.00;100080;1283;1002393;-34
2024/01/19 00:06:32;;;;;;;39.10;18.00;;;;;;;-128.00;-1.00;-1.00;100140;1287;1038721;-32
2024/01/19 00:08:57;;;;;;;56.60;22.20;;;;;;;-128.00;-1.00;-1.00;100067;1285;1003336;-31
2024/01/19 00:11:23;;;;;;;44.00;18.90;;;;;;;-128.00;-1.00;-1.00;100138;1285;1055331;-33
2024/01/19 00:13:49;;;;;;;49.00;21.50;;;;;;;-128.00;-1.00;-1.00;100079;1284;1003627;-35
2024/01/19 00:16:14;;;;;;;59.10;25.50;;;;;;;-128.00;-1.00;-1.00;100255;1284;1004421;-32
2024/01/19 00:18:40;;;;;;;58.30;24.70;;;;;;;-128.00;-1.00;-1.00;100191;1283;1046935;-33
2024/01/19 00:21:06;;;;;;;54.80;22.70;;;;;;;-128.00;-1.00;-1.00;100083;1285;1003937;-35
2024/01/19 00:23:40;;;;;;;50.00;21.80;;;;;;;-128.00;-1.00;-1.00;100202;1283;1003368;-31
2024/01/19 00:26:06;;;;;;;56.30;23.20;;;;;;;-128.00;-1.00;-1.00;100028;1283;1013016;-32
2024/01/19 00:28:32;;;;;;;63.30;25.30;;;;;;;-128.00;-1.00;-1.00;100160;1284;1003179;-34
2024/01/19 00:30:57;;;;;;;54.60;22.20;;;;;;;-128.00;-1.00;-1.00;100023;1287;1003030;-35
2024/01/19 00:33:23;;;;;;;47.60;20.20;;;;;;;-128.00;-1.00;-1.00;100171;1285;1003809;-32
2024/01/19 00:35:49;;;;;;;61.00;22.60;;;;;;;-128.00;-1.00;-1.00;100105;1285;1058829;-32
2024/01/19 00:38:14;;;;;;;43.50;18.50;;;;;;;-128.00;-1.00;-1.00;100164;1287;1003470;-35
2024/01/19 00:40:40;;;;;;;49.70;20.20;;;;;;;-128.00;-1.00;-1.00;100195;1285;1004144;-35
2024/01/19 00:43:06;;;;;;;43.90;17.70;;;;;;;-128.00;-1.00;-1.00;100188;1285;1059774;-32
2024/01/19 00:45:31;;;;;;;42.00;17.40;;;;;;;-128.00;-1.00;-1.00;100174;1285;1002928;-32
2024/01/19 00:47:57;;;;;;;39.80;18.10;;;;;;;-128.00;-1.00;-1.00;100124;1285;1012731;-32
2024/01/19 00:50:22;;;;;;;50.50;18.50;;;;;;;-128.00;-1.00;-1.00;100080;1285;1002671;-32
2024/01/19 00:52:48;;;;;;;40.50;15.10;;;;;;;-128.00;-1.00;-1.00;100160;1285;1003586;-33
2024/01/19 00:55:13;;;;;;;49.00;19.60;;;;;;;-128.00;-1.00;-1.00;100186;1285;1002799;-34
2024/01/19 00:57:39;;;;;;;36.40;16.30;;;;;;;-128.00;-1.00;-1.00;100150;1285;1003171;-32
2024/01/19 01:00:05;;;;;;;35.40;15.40;;;;;;;-128.00;-1.00;-1.00;100192;1284;1005097;-34
2024/01/19 01:02:31;;;;;;;31.50;14.30;;;;;;;-128.00;-1.00;-1.00;100234;1287;1002877;-31
2024/01/19 01:04:57;;;;;;;35.70;14.20;;;;;;;-128.00;-1.00;-1.00;100205;1285;1004160;-35
2024/01/19 01:07:23;;;;;;;36.10;15.40;;;;;;;-128.00;-1.00;-1.00;100139;1284;1058880;-33
2024/01/19 01:09:49;;;;;;;40.30;16.40;;;;;;;-128.00;-1.00;-1.00;100177;1285;1003900;-32
2024/01/19 01:12:15;;;;;;;38.30;15.40;;;;;;;-128.00;-1.00;-1.00;100037;1287;1002583;-31
2024/01/19 01:14:40;;;;;;;44.50;19.10;;;;;;;-128.00;-1.00;-1.00;100243;1285;1059753;-35
2024/01/19 01:17:06;;;;;;;33.30;12.50;;;;;;;-128.00;-1.00;-1.00;100154;1287;1004201;-33
2024/01/19 01:19:32;;;;;;;39.10;16.50;;;;;;;-128.00;-1.00;-1.00;100114;1285;1003547;-35
2024/01/19 01:21:58;;;;;;;31.00;13.70;;;;;;;-128.00;-1.00;-1.00;100150;1283;1038093;-35
2024/01/19 01:24:24;;;;;;;47.30;17.00;;;;;;;-128.00;-1.00;-1.00;100112;1287;1003328;-33
2024/01/19 01:26:50;;;;;;;;;;;;;;;-128.00;-1.00;-1.00;100234;1285;1003304;-31
2024/01/19 01:29:15;;;;;;;31.90;13.90;;;;;;;-128.00;-1.00;-1.00;100186;1287;1002755;-32
2024/01/19 01:31:41;;;;;;;23.10;10.00;;;;;;;-128.00;-1.00;-1.00;100126;1287;1012703;-33
2024/01/19 01:34:07;;;;;;;;;;;;;;;-128.00;-1.00;-1.00;100136;1285;1002830;-33
2024/01/19 01:36:33;;;;;;;31.40;13.40;;;;;;;-128.00;-1.00;-1.00;100162;1285;1002822;-32
2024/01/19 01:38:59;;;;;;;;;;;;;;;-128.00;-1.00;-1.00;100220;1287;1002759;-32
2024/01/19 01:41:24;;;;;;;27.90;10.50;;;;;;;-128.00;-1.00;-1.00;100144;1283;1058213;-33
2024/01/19 01:43:50;;;;;;;17.40;9.30;;;;;;;-128.00;-1.00;-1.00;100176;1285;1003281;-33
2024/01/19 01:46:15;;;;;;;15.70;7.70;;;;;;;-128.00;-1.00;-1.00;100083;1283;1004246;-35
2024/01/19 01:48:41;;;;;;;14.70;7.60;;;;;;;-128.00;-1.00;-1.00;100180;1283;1060767;-36
2024/01/19 01:51:07;;;;;;;18.10;7.50;;;;;;;-128.00;-1.00;-1.00;100138;1285;1004571;-33
2024/01/19 02:35:05;;;;;;;41.90;16.40;;;;;;;-3.31;100.00;98689.69;103629;1282;614376;-30
2024/01/19 02:37:31;;;;;;;;;;;;;;;-3.17;100.00;98692.66;103603;1282;219988;-31
2024/01/19 02:39:56;;;;;;;47.90;18.40;;;;;;;-3.18;100.00;98693.77;103079;1281;1002139;-39
2024/01/19 02:42:22;;;;;;;57.40;20.00;;;;;;;-3.20;100.00;98694.41;103207;1284;1002898;-34
2024/01/19 02:44:47;;;;;;;53.10;21.40;;;;;;;-3.15;100.00;98700.36;103916;1298;60753;-33
2024/01/19 02:47:13;;;;;;;49.60;21.30;;;;;;;-3.13;100.00;98704.02;103932;1284;60470;-33
2024/01/19 02:49:39;;;;;;;39.30;15.70;;;;;;;-3.06;100.00;98708.02;103976;1284;60352;-32
2024/01/19 02:52:05;;;;;;;44.20;16.00;;;;;;;-2.99;100.00;98708.48;103968;1286;60467;-32
2024/01/19 02:54:31;;;;;;;49.10;20.30;;;;;;;-2.93;100.00;98713.38;104030;1284;60447;-33
2024/01/19 02:56:56;;;;;;;31.20;13.00;;;;;;;-2.90;100.00;98720.61;103935;1293;60476;-34
2024/01/19 02:59:22;;;;;;;36.60;14.90;;;;;;;-2.82;100.00;98728.80;103973;1298;60814;-38
2024/01/19 03:01:48;;;;;;;43.00;15.20;;;;;;;-2.84;100.00;98737.51;103860;1284;60809;-34
2024/01/19 03:04:13;;;;;;;32.60;13.60;;;;;;;-2.82;100.00;98741.37;103896;1293;60807;-30
2024/01/19 03:06:39;;;;;;;33.30;12.30;;;;;;;-2.73;100.00;98743.08;104096;1284;60779;-31
2024/01/19 03:09:04;;;;;;;27.00;11.50;;;;;;;-52.81;59.60;59248.85;102480;1284;1002494;-32
2024/01/19 03:11:30;;;;;;;31.50;13.60;;;;;;;-128.00;-1.00;-1.00;100129;1282;1003275;-33
2024/01/19 03:13:56;;;;;;;34.10;12.40;;;;;;;-128.00;-1.00;-1.00;100375;1282;1003269;-31
2024/01/19 03:16:22;;;;;;;32.10;12.60;;;;;;;-128.00;-1.00;-1.00;100337;1281;1003213;-31
2024/01/19 03:18:47;;;;;;;32.90;13.40;;;;;;;-128.00;-1.00;-1.00;100315;1283;1046127;-35
2024/01/19 03:21:13;;;;;;;38.50;14.80;;;;;;;-128.00;-1.00;-1.00;100500;1281;1003154;-32
2024/01/19 03:23:39;;;;;;;38.20;13.70;;;;;;;-128.00;-1.00;-1.00;100453;1281;1003709;-32
2024/01/19 03:26:05;;;;;;;18.70;7.30;;;;;;;-128.00;-1.00;-1.00;100255;1282;1013401;-33
2024/01/19 03:28:31;;;;;;;30.50;12.20;;;;;;;-128.00;-1.00;-1.00;100426;1284;1003117;-35
2024/01/19 03:30:57;;;;;;;28.80;12.50;;;;;;;-128.00;-1.00;-1.00;100443;1282;1003349;-33
2024/01/19 03:33:22;;;;;;;37.80;13.60;;;;;;;-128.00;-1.00;-1.00;100402;1282;1002993;-32
2024/01/19 03:35:48;;;;;;;37.30;13.40;;;;;;;-128.00;-1.00;-1.00;100347;1282;1002535;-34
2024/01/19 03:38:14;;;;;;;38.90;15.50;;;;;;;-128.00;-1.00;-1.00;100362;1282;1003323;-32
2024/01/19 03:40:39;;;;;;;35.20;15.70;;;;;;;-128.00;-1.00;-1.00;100360;1282;1002871;-33
2024/01/19 03:43:05;;;;;;;20.30;9.90;;;;;;;-128.00;-1.00;-1.00;100408;1281;1058388;-34
2024/01/19 03:45:30;;;;;;;24.30;11.50;;;;;;;-128.00;-1.00;-1.00;100317;1282;1002483;-32
2024/01/19 03:47:56;;;;;;;25.00;13.00;;;;;;;-128.00;-1.00;-1.00;100224;1282;1003147;-31
2024/01/19 03:50:22;;;;;;;20.50;10.20;;;;;;;-128.00;-1.00;-1.00;100346;1282;1003540;-33
2024/01/19 03:52:47;;;;;;;;;;;;;;;-128.00;-1.00;-1.00;100522;1281;1002874;-32
2024/01/19 03:55:15;;;;;;;20.60;7.20;;;;;;;-128.00;-1.00;-1.00;100317;1282;1056692;-35
2024/01/19 03:57:40;;;;;;;17.90;7.30;;;;;;;-128.00;-1.00;-1.00;100317;1282;1002272;-31
2024/01/19 04:00:06;;;;;;;25.70;11.40;;;;;;;-128.00;-1.00;-1.00;100381;1282;1003523;-33
2024/01/19 04:02:32;;;;;;;22.70;9.00;;;;;;;-128.00;-1.00;-1.00;100381;1282;1045486;-31
2024/01/19 04:04:58;;;;;;;29.80;10.60;;;;;;;-128.00;-1.00;-1.00;100463;1284;1003093;-31
2024/01/19 04:07:23;;;;;;;30.00;11.90;;;;;;;-128.00;-1.00;-1.00;100254;1281;1003342;-31
2024/01/19 04:09:49;;;;;;;25.70;11.80;;;;;;;-128.00;-1.00;-1.00;100350;1281;1002949;-31
2024/01/19 04:12:16;;;;;;;32.90;12.30;;;;;;;-128.00;-1.00;-1.00;100240;1281;1003766;-33
2024/01/19 04:14:42;;;;;;;28.50;11.30;;;;;;;-128.00;-1.00;-1.00;100420;1281;1004044;-33
2024/01/19 04:17:08;;;;;;;;;;;;;;;-128.00;-1.00;-1.00;100381;1282;1003085;-34
2024/01/19 04:19:34;;;;;;;24.00;9.80;;;;;;;-128.00;-1.00;-1.00;100395;1282;1002949;-32
2024/01/19 04:21:59;;;;;;;19.50;8.80;;;;;;;-128.00;-1.00;-1.00;100364;1282;1003223;-33
2024/01/19 04:24:25;;;;;;;21.00;9.30;;;;;;;-128.00;-1.00;-1.00;100260;1282;1004851;-34
2024/01/19 04:26:51;;;;;;;20.20;7.50;;;;;;;-128.00;-1.00;-1.00;100314;1281;1002875;-34
2024/01/19 04:29:16;;;;;;;23.80;7.90;;;;;;;-128.00;-1.00;-1.00;100366;1282;1002679;-39
2024/01/19 04:31:42;;;;;;;27.20;11.50;;;;;;;-128.00;-1.00;-1.00;100324;1281;1003429;-34
2024/01/19 04:34:07;;;;;;;21.10;9.50;;;;;;;-128.00;-1.00;-1.00;100285;1281;1003149;-34
2024/01/19 04:36:33;;;;;;;25.60;11.90;;;;;;;-128.00;-1.00;-1.00;100435;1281;1045741;-34
2024/01/19 04:38:58;;;;;;;27.30;11.40;;;;;;;-128.00;-1.00;-1.00;100369;1281;1003070;-34
2024/01/19 04:41:24;;;;;;;28.10;10.70;;;;;;;-128.00;-1.00;-1.00;100252;1282;1004719;-32
2024/01/19 04:43:49;;;;;;;19.90;9.10;;;;;;;-128.00;-1.00;-1.00;100407;1282;1003751;-32
2024/01/19 04:46:15;;;;;;;27.30;12.00;;;;;;;-128.00;-1.00;-1.00;100365;1284;1003446;-33
2024/01/19 04:48:41;;;;;;;26.90;10.80;;;;;;;-128.00;-1.00;-1.00;100310;1282;1003126;-34
2024/01/19 04:51:06;;;;;;;32.50;13.10;;;;;;;-128.00;-1.00;-1.00;100364;1281;1003386;-37
2024/01/19 04:53:32;;;;;;;26.00;12.10;;;;;;;-128.00;-1.00;-1.00;100291;1282;1002925;-32
2024/01/19 04:55:57;;;;;;;28.40;12.10;;;;;;;-128.00;-1.00;-1.00;100222;1286;1003882;-31
2024/01/19 04:58:23;;;;;;;22.00;10.70;;;;;;;-128.00;-1.00;-1.00;100410;1281;1003051;-33
2024/01/19 05:00:49;;;;;;;15.40;7.40;;;;;;;-128.00;-1.00;-1.00;100344;1282;1056209;-34
2024/01/19 05:03:15;;;;;;;20.60;8.70;;;;;;;-128.00;-1.00;-1.00;100218;1282;1003527;-34
2024/01/19 05:05:41;;;;;;;13.00;6.50;;;;;;;-128.00;-1.00;-1.00;100284;1282;1002944;-33
2024/01/19 05:08:06;;;;;;;11.50;4.90;;;;;;;-128.00;-1.00;-1.00;100403;1282;1003107;-31
2024/01/19 05:10:32;;;;;;;13.70;6.70;;;;;;;-128.00;-1.00;-1.00;100355;1281;1059571;-33
2024/01/19 05:12:58;;;;;;;22.90;9.10;;;;;;;-128.00;-1.00;-1.00;100374;1282;1002669;-31
2024/01/19 05:15:24;;;;;;;15.40;6.80;;;;;;;-128.00;-1.00;-1.00;100312;1280;1003567;-31
2024/01/19 05:17:49;;;;;;;11.50;5.40;;;;;;;-128.00;-1.00;-1.00;100366;1282;1038653;-34
2024/01/19 05:20:15;;;;;;;16.50;7.20;;;;;;;-128.00;-1.00;-1.00;100354;1281;1003056;-31
2024/01/19 05:22:41;;;;;;;15.70;7.40;;;;;;;-128.00;-1.00;-1.00;100198;1280;1003112;-32
2024/01/19 05:25:07;;;;;;;9.80;5.00;;;;;;;-128.00;-1.00;-1.00;100307;1282;1059684;-32
2024/01/19 05:27:33;;;;;;;18.20;7.10;;;;;;;-128.00;-1.00;-1.00;100284;1282;1003260;-35
2024/01/19 05:29:58;;;;;;;6.20;3.50;;;;;;;-128.00;-1.00;-1.00;100269;1282;1003563;-31
2024/01/19 05:32:24;;;;;;;15.30;6.00;;;;;;;-128.00;-1.00;-1.00;100288;1282;1003015;-31
2024/01/19 05:34:49;;;;;;;17.50;6.00;;;;;;;-128.00;-1.00;-1.00;100383;1282;1056463;-34
2024/01/19 05:37:15;;;;;;;14.40;4.80;;;;;;;-128.00;-1.00;-1.00;100308;1282;1003287;-33
2024/01/19 05:39:41;;;;;;;16.90;4.60;;;;;;;-128.00;-1.00;-1.00;100312;1284;1039495;-32
2024/01/19 05:42:06;;;;;;;23.20;7.50;;;;;;;-128.00;-1.00;-1.00;100320;1282;1002935;-34
2024/01/19 05:44:32;;;;;;;13.50;5.50;;;;;;;-128.00;-1.00;-1.00;100285;1282;1055767;-34
2024/01/19 05:46:57;;;;;;;12.50;6.50;;;;;;;-128.00;-1.00;-1.00;100351;1282;1002847;-31
2024/01/19 05:49:23;;;;;;;14.00;6.00;;;;;;;-128.00;-1.00;-1.00;100315;1284;1039187;-34
2024/01/19 05:51:49;;;;;;;10.90;4.50;;;;;;;-128.00;-1.00;-1.00;100302;1282;1002795;-34
2024/01/19 05:54:14;;;;;;;17.20;7.70;;;;;;;-128.00;-1.00;-1.00;100416;1282;1002882;-31
2024/01/19 05:56:40;;;;;;;11.70;5.10;;;;;;;-128.00;-1.00;-1.00;100343;1282;1058610;-31
2024/01/19 05:59:05;;;;;;;11.60;4.70;;;;;;;-128.00;-1.00;-1.00;100299;1282;1003524;-32
2024/01/19 06:01:31;;;;;;;12.90;5.00;;;;;;;-128.00;-1.00;-1.00;100355;1282;1002645;-32
2024/01/19 06:04:00;;;;;;;13.70;5.90;;;;;;;-128.00;-1.00;-1.00;100278;1282;1060189;-32
2024/01/19 06:06:26;;;;;;;11.70;4.30;;;;;;;-128.00;-1.00;-1.00;100324;1282;1055429;-32
2024/01/19 06:08:52;;;;;;;18.10;6.50;;;;;;;-128.00;-1.00;-1.00;100284;1284;1003021;-32
2024/01/19 06:11:17;;;;;;;11.80;5.40;;;;;;;-128.00;-1.00;-1.00;100400;1282;1004495;-34
2024/01/19 06:13:45;;;;;;;9.80;4.40;;;;;;;-128.00;-1.00;-1.00;100319;1282;1004082;-32
2024/01/19 06:16:11;;;;;;;21.60;7.10;;;;;;;-128.00;-1.00;-1.00;100316;1282;1002882;-32
2024/01/19 06:18:36;;;;;;;13.90;6.60;;;;;;;-128.00;-1.00;-1.00;100291;1282;1003290;-32
2024/01/19 06:21:02;;;;;;;15.70;8.00;;;;;;;-128.00;-1.00;-1.00;100288;1282;1003364;-36
2024/01/19 06:23:28;;;;;;;15.60;6.80;;;;;;;-128.00;-1.00;-1.00;100399;1282;1039257;-33
2024/01/19 06:25:54;;;;;;;8.10;3.70;;;;;;;-128.00;-1.00;-1.00;100336;1281;1003819;-32
2024/01/19 06:28:21;;;;;;;21.20;8.60;;;;;;;-128.00;-1.00;-1.00;100415;1282;1002982;-32
2024/01/19 06:30:46;;;;;;;22.60;8.50;;;;;;;-128.00;-1.00;-1.00;100262;1282;1058453;-33
2024/01/19 06:33:12;;;;;;;13.30;6.50;;;;;;;-128.00;-1.00;-1.00;100317;1282;1002867;-34
2024/01/19 06:35:39;;;;;;;14.70;5.80;;;;;;;-128.00;-1.00;-1.00;100345;1284;1003057;-34
2024/01/19 06:38:04;;;;;;;19.00;8.50;;;;;;;-128.00;-1.00;-1.00;100357;1282;1060840;-33
2024/01/19 06:40:30;;;;;;;21.30;6.60;;;;;;;-128.00;-1.00;-1.00;100325;1282;1002518;-34
2024/01/19 06:42:56;;;;;;;18.20;7.60;;;;;;;-128.00;-1.00;-1.00;100300;1282;1012232;-31
2024/01/19 06:45:22;;;;;;;18.80;8.10;;;;;;;-128.00;-1.00;-1.00;100456;1281;1002446;-31
2024/01/19 06:47:47;;;;;;;8.60;5.40;;;;;;;-128.00;-1.00;-1.00;100288;1282;1004155;-33
2024/01/19 06:50:13;;;;;;;9.10;4.40;;;;;;;-128.00;-1.00;-1.00;100295;1281;1056377;-32
2024/01/19 06:52:39;;;;;;;16.10;8.40;;;;;;;-128.00;-1.00;-1.00;100273;1282;1002469;-33
2024/01/19 06:55:05;;;;;;;20.00;7.10;;;;;;;-128.00;-1.00;-1.00;100141;1285;1004376;-31
2024/01/19 06:57:31;;;;;;;22.30;8.90;;;;;;;-128.00;-1.00;-1.00;100321;1282;1046852;-31
2024/01/19 06:59:57;;;;;;;15.30;7.80;;;;;;;-128.00;-1.00;-1.00;100341;1282;1003084;-31
2024/01/19 07:02:23;;;;;;;22.20;8.30;;;;;;;-128.00;-1.00;-1.00;100299;1282;1004245;-31
2024/01/19 07:04:49;;;;;;;;;;;;;;;-128.00;-1.00;-1.00;100308;1284;1012384;-34
2024/01/19 07:07:15;;;;;;;8.60;4.60;;;;;;;-128.00;-1.00;-1.00;100407;1284;1002791;-32
2024/01/19 07:09:40;;;;;;;24.20;10.00;;;;;;;-128.00;-1.00;-1.00;100401;1282;1003027;-33
2024/01/19 07:12:06;;;;;;;11.70;5.60;;;;;;;-128.00;-1.00;-1.00;100282;1285;1055337;-34
2024/01/19 07:14:32;;;;;;;15.50;7.60;;;;;;;-128.00;-1.00;-1.00;100359;1282;1003681;-34
2024/01/19 07:16:58;;;;;;;;;;;;;;;-128.00;-1.00;-1.00;100390;1282;1003031;-33
2024/01/19 07:19:23;;;;;;;15.90;6.20;;;;;;;-128.00;-1.00;-1.00;100287;1282;1003076;-33
2024/01/19 07:21:49;;;;;;;44.00;16.20;;;;;;;-128.00;-1.00;-1.00;100276;1282;1003177;-31
2024/01/19 07:24:15;;;;;;;23.70;9.00;;;;;;;-128.00;-1.00;-1.00;100348;1281;1003040;-34
2024/01/19 07:26:41;;;;;;;9.10;3.70;;;;;;;-128.00;-1.00;-1.00;100298;1282;1012077;-37
2024/01/19 07:29:08;;;;;;;18.90;7.40;;;;;;;-128.00;-1.00;-1.00;100307;1281;1002827;-33
2024/01/19 07:31:35;;;;;;;25.70;9.30;;;;;;;-128.00;-1.00;-1.00;100342;1284;1003072;-33
2024/01/19 07:34:01;;;;;;;104.50;34.00;;;;;;;-128.00;-1.00;-1.00;100290;1281;1004005;-32
2024/01/19 07:36:26;;;;;;;66.00;16.40;;;;;;;-128.00;-1.00;-1.00;100301;1282;1004020;-33
2024/01/19 07:38:52;;;;;;;134.20;51.80;;;;;;;-128.00;-1.00;-1.00;100281;1282;1003104;-32
2024/01/19 07:41:18;;;;;;;132.70;43.80;;;;;;;-128.00;-1.00;-1.00;100279;1287;1039504;-31
2024/01/19 07:43:44;;;;;;;58.10;21.20;;;;;;;-128.00;-1.00;-1.00;100340;1284;1004167;-33
2024/01/19 07:46:11;;;;;;;32.40;14.20;;;;;;;-128.00;-1.00;-1.00;100442;1282;1003512;-31
2024/01/19 07:48:37;;;;;;;31.90;12.90;;;;;;;-128.00;-1.00;-1.00;100323;1284;1058641;-34
2024/01/19 07:51:03;;;;;;;28.80;10.40;;;;;;;-128.00;-1.00;-1.00;100324;1282;1003324;-32
2024/01/19 07:53:29;;;;;;;27.90;10.10;;;;;;;-128.00;-1.00;-1.00;100312;1284;1003776;-31
2024/01/19 07:55:54;;;;;;;;;;;;;;;-128.00;-1.00;-1.00;100356;1282;1003531;-31
2024/01/19 07:58:20;;;;;;;29.90;10.10;;;;;;;-128.00;-1.00;-1.00;100312;1282;1003444;-32
2024/01/19 08:00:46;;;;;;;30.10;12.90;;;;;;;-128.00;-1.00;-1.00;100263;1282;1003174;-34
2024/01/19 08:03:11;;;;;;;41.10;14.40;;;;;;;-128.00;-1.00;-1.00;100349;1286;1002522;-33
2024/01/19 08:05:37;;;;;;;22.70;10.20;;;;;;;-128.00;-1.00;-1.00;100292;1284;1046536;-32
2024/01/19 08:08:03;;;;;;;27.00;9.90;;;;;;;-128.00;-1.00;-1.00;100302;1282;1003509;-34
2024/01/19 08:10:32;;;;;;;24.40;11.30;;;;;;;-128.00;-1.00;-1.00;100365;1283;1003239;-34
2024/01/19 08:12:59;;;;;;;23.30;10.50;;;;;;;-128.00;-1.00;-1.00;100370;1281;1012874;-31
2024/01/19 08:15:25;;;;;;;35.10;12.60;;;;;;;-128.00;-1.00;-1.00;100313;1287;1002731;-30
2024/01/19 08:17:51;;;;;;;16.20;7.40;;;;;;;-128.00;-1.00;-1.00;100284;1288;1003202;-32
2024/01/19 08:20:17;;;;;;;12.50;6.10;;;;;;;-128.00;-1.00;-1.00;100405;1282;1003571;-32
2024/01/19 08:22:43;;;;;;;25.80;11.10;;;;;;;-128.00;-1.00;-1.00;100106;1282;1060952;-33
2024/01/19 08:25:09;;;;;;;;;;;;;;;-128.00;-1.00;-1.00;100161;1282;1004999;-33
2024/01/19 08:27:35;;;;;;;16.70;5.80;;;;;;;-128.00;-1.00;-1.00;100327;1284;1003091;-35
2024/01/19 08:30:00;;;;;;;18.30;6.40;;;;;;;-128.00;-1.00;-1.00;100341;1282;1003041;-33
2024/01/19 08:32:26;;;;;;;15.60;7.90;;;;;;;-128.00;-1.00;-1.00;100425;1282;1003106;-34
2024/01/19 08:34:52;;;;;;;19.40;8.00;;;;;;;-128.00;-1.00;-1.00;100372;1284;1003582;-35
2024/01/19 08:37:17;;;;;;;23.30;11.20;;;;;;;-128.00;-1.00;-1.00;100366;1282;1002683;-30
2024/01/19 08:39:46;;;;;;;11.00;6.70;;;;;;;-128.00;-1.00;-1.00;100311;1283;1047889;-31
2024/01/19 08:42:12;;;;;;;28.20;9.90;;;;;;;-128.00;-1.00;-1.00;100278;1282;1060493;-30
2024/01/19 08:44:37;;;;;;;18.70;9.30;;;;;;;-128.00;-1.00;-1.00;100330;1284;1005417;-31
2024/01/19 08:47:03;;;;;;;33.80;10.40;;;;;;;-128.00;-1.00;-1.00;100337;1282;1003271;-33
2024/01/19 08:49:29;;;;;;;34.50;11.90;;;;;;;-128.00;-1.00;-1.00;100279;1282;1004005;-32
2024/01/19 08:51:55;;;;;;;39.30;15.00;;;;;;;-128.00;-1.00;-1.00;100298;1282;1003347;-32
2024/01/19 08:54:20;;;;;;;28.90;10.80;;;;;;;-128.00;-1.00;-1.00;100367;1280;1002796;-33
2024/01/19 08:56:46;;;;;;;117.50;30.40;;;;;;;-128.00;-1.00;-1.00;100263;1285;1058457;-33
2024/01/19 08:59:13;;;;;;;37.30;12.60;;;;;;;-128.00;-1.00;-1.00;100345;1282;1004335;-31
2024/01/19 09:01:38;;;;;;;31.60;11.80;;;;;;;-128.00;-1.00;-1.00;100329;1284;1003303;-32
2024/01/19 09:04:04;;;;;;;26.40;12.20;;;;;;;-128.00;-1.00;-1.00;100383;1282;1002711;-33
2024/01/19 09:06:30;;;;;;;27.00;13.40;;;;;;;-128.00;-1.00;-1.00;100301;1282;1054956;-33
2024/01/19 09:09:01;;;;;;;21.50;11.00;;;;;;;-128.00;-1.00;-1.00;100262;1282;1003216;-31
2024/01/19 09:11:27;;;;;;;23.30;8.90;;;;;;;-128.00;-1.00;-1.00;100284;1283;1012404;-33
2024/01/19 09:13:52;;;;;;;16.10;8.30;;;;;;;-128.00;-1.00;-1.00;100296;1281;1003206;-33
2024/01/19 09:16:19;;;;;;;25.00;10.80;;;;;;;-128.00;-1.00;-1.00;100457;1282;1002893;-34
2024/01/19 09:18:45;;;;;;;18.50;7.40;;;;;;;-128.00;-1.00;-1.00;100339;1282;1056479;-30
2024/01/19 09:21:16;;;;;;;23.70;9.20;;;;;;;-128.00;-1.00;-1.00;100317;1280;1003847;-32
2024/01/19 09:23:41;;;;;;;15.90;6.80;;;;;;;-128.00;-1.00;-1.00;100324;1282;1038365;-34
2024/01/19 09:26:07;;;;;;;14.00;6.60;;;;;;;-128.00;-1.00;-1.00;100404;1282;1002624;-32
2024/01/19 09:28:35;;;;;;;14.00;7.10;;;;;;;-128.00;-1.00;-1.00;100368;1284;1003769;-31
2024/01/19 09:31:01;;;;;;;21.70;9.50;;;;;;;-128.00;-1.00;-1.00;100427;1287;1004289;-33
2024/01/19 09:33:26;;;;;;;15.60;7.00;;;;;;;-128.00;-1.00;-1.00;100528;1283;1002966;-33
2024/01/19 09:35:52;;;;;;;19.90;7.90;;;;;;;-128.00;-1.00;-1.00;100340;1286;1003815;-34
2024/01/19 09:38:17;;;;;;;17.80;7.40;;;;;;;-128.00;-1.00;-1.00;100332;1282;1003522;-32
2024/01/19 09:40:45;;;;;;;23.60;10.40;;;;;;;-128.00;-1.00;-1.00;100298;1282;1003429;-33
2024/01/19 09:43:11;;;;;;;24.30;8.50;;;;;;;-128.00;-1.00;-1.00;100281;1284;1004130;-35
2024/01/19 09:45:43;;;;;;;;;;;;;;;-128.00;-1.00;-1.00;100360;1282;1003453;-35
2024/01/19 09:48:22;;;;;;;15.40;8.00;;;;;;;-128.00;-1.00;-1.00;100312;1282;1038448;-35
2024/01/19 09:50:48;;;;;;;14.60;7.00;;;;;;;-128.00;-1.00;-1.00;100352;1283;1046571;-34
2024/01/19 09:53:32;;;;;;;9.80;5.50;;;;;;;-128.00;-1.00;-1.00;100325;1284;1003867;-31
2024/01/19 09:56:01;;;;;;;23.10;7.70;;;;;;;-128.00;-1.00;-1.00;100061;1282;1056796;-33
2024/01/19 09:58:27;;;;;;;13.80;6.60;;;;;;;-128.00;-1.00;-1.00;100345;1284;1058780;-33
2024/01/19 10:00:54;;;;;;;23.90;8.70;;;;;;;-128.00;-1.00;-1.00;100342;1282;1005035;-35
2024/01/19 10:03:22;;;;;;;31.90;11.40;;;;;;;-128.00;-1.00;-1.00;100068;1282;1003581;-31
2024/01/19 10:05:48;;;;;;;26.40;6.90;;;;;;;-128.00;-1.00;-1.00;100332;1282;1002828;-34
2024/01/19 10:08:14;;;;;;;106.80;28.00;;;;;;;-128.00;-1.00;-1.00;100354;1282;1002394;-32
2024/01/19 10:10:41;;;;;;;37.00;11.00;;;;;;;-128.00;-1.00;-1.00;100386;1283;1003165;-32
2024/01/19 10:13:07;;;;;;;34.30;9.50;;;;;;;-128.00;-1.00;-1.00;100344;1284;1003239;-34
2024/01/19 10:15:33;;;;;;;62.90;16.20;;;;;;;-128.00;-1.00;-1.00;100307;1282;1003344;-35
2024/01/19 10:17:59;;;;;;;32.70;8.80;;;;;;;-128.00;-1.00;-1.00;100402;1285;1003507;-31
2024/01/19 10:20:25;;;;;;;39.90;13.60;;;;;;;-128.00;-1.00;-1.00;100276;1280;1060691;-34
2024/01/19 10:22:51;;;;;;;26.30;9.10;;;;;;;-128.00;-1.00;-1.00;100361;1284;1003082;-35
2024/01/19 10:25:17;;;;;;;9.40;5.10;;;;;;;-128.00;-1.00;-1.00;100289;1284;1002923;-35
2024/01/19 10:27:50;;;;;;;14.80;6.40;;;;;;;-128.00;-1.00;-1.00;99967;1289;1038819;-33
2024/01/19 10:30:21;;;;;;;10.30;4.90;;;;;;;-128.00;-1.00;-1.00;100274;1282;1046222;-31
2024/01/19 10:32:48;;;;;;;15.10;6.30;;;;;;;-128.00;-1.00;-1.00;100284;1282;1060152;-31
2024/01/19 10:35:15;;;;;;;9.00;3.60;;;;;;;-128.00;-1.00;-1.00;100450;1284;1003647;-32
2024/01/19 10:37:42;;;;;;;12.30;5.30;;;;;;;-128.00;-1.00;-1.00;100246;1283;1003219;-31
2024/01/19 10:40:14;;;;;;;20.30;7.00;;;;;;;-128.00;-1.00;-1.00;100119;1281;1003344;-34
2024/01/19 10:42:41;;;;;;;18.90;5.80;;;;;;;-128.00;-1.00;-1.00;100391;1288;1038578;-33
2024/01/19 10:45:20;;;;;;;11.80;5.10;;;;;;;-128.00;-1.00;-1.00;100360;1284;1004453;-32
2024/01/19 10:47:46;;;;;;;14.40;4.70;;;;;;;-128.00;-1.00;-1.00;100385;1281;1059997;-32
2024/01/19 10:50:14;;;;;;;7.50;3.80;;;;;;;-128.00;-1.00;-1.00;100344;1282;1003026;-31
2024/01/19 10:52:41;;;;;;;19.90;6.90;;;;;;;-128.00;-1.00;-1.00;100258;1282;1004513;-34
2024/01/19 10:55:08;;;;;;;52.40;16.00;;;;;;;-128.00;-1.00;-1.00;100304;1283;1004511;-31
2024/01/19 10:57:33;;;;;;;23.20;6.90;;;;;;;-128.00;-1.00;-1.00;100286;1283;1003038;-34
2024/01/19 10:59:59;;;;;;;96.50;26.40;;;;;;;-128.00;-1.00;-1.00;100398;1282;1004314;-32
2024/01/19 11:02:25;;;;;;;24.60;7.60;;;;;;;-128.00;-1.00;-1.00;100270;1283;1055992;-31
2024/01/19 11:04:51;;;;;;;31.60;9.80;;;;;;;-128.00;-1.00;-1.00;100202;1281;1003611;-32
2024/01/19 11:07:17;;;;;;;29.30;7.40;;;;;;;-128.00;-1.00;-1.00;100316;1282;1002660;-32
2024/01/19 11:09:44;;;;;;;11.00;4.50;;;;;;;-128.00;-1.00;-1.00;100373;1284;1002744;-36
2024/01/19 11:12:10;;;;;;;15.10;6.20;;;;;;;-128.00;-1.00;-1.00;100119;1280;1060290;-32
2024/01/19 11:14:36;;;;;;;19.00;5.20;;;;;;;-128.00;-1.00;-1.00;100243;1286;1002599;-34
2024/01/19 11:17:02;;;;;;;;;;;;;;;-128.00;-1.00;-1.00;100299;1282;1003416;-32
2024/01/19 11:19:30;;;;;;;20.00;6.80;;;;;;;-128.00;-1.00;-1.00;100333;1285;1003308;-35
2024/01/19 11:21:56;;;;;;;22.20;5.80;;;;;;;-128.00;-1.00;-1.00;100288;1282;1046641;-32
2024/01/19 11:24:21;;;;;;;11.90;4.00;;;;;;;-128.00;-1.00;-1.00;100305;1285;1002263;-33
2024/01/19 11:26:54;;;;;;;14.20;4.30;;;;;;;-128.00;-1.00;-1.00;100355;1281;1002900;-33
2024/01/19 11:29:31;;;;;;;14.40;5.90;;;;;;;-128.00;-1.00;-1.00;100277;1284;1013183;-31
2024/01/19 11:31:56;;;;;;;26.80;9.70;;;;;;;-128.00;-1.00;-1.00;100309;1285;1040003;-34
2024/01/19 11:34:48;;;;;;;25.90;9.70;;;;;;;-128.00;-1.00;-1.00;100311;1283;1002526;-31
2024/01/19 11:37:38;;;;;;;12.50;4.10;;;;;;;-128.00;-1.00;-1.00;100308;1282;1056351;-33
2024/01/19 11:40:05;;;;;;;13.50;5.10;;;;;;;-128.00;-1.00;-1.00;100325;1282;1059137;-32
2024/01/19 11:42:50;;;;;;;22.30;7.50;;;;;;;-128.00;-1.00;-1.00;100392;1284;1002896;-31
2024/01/19 11:45:44;;;;;;;8.70;3.40;;;;;;;-128.00;-1.00;-1.00;100332;1284;1039179;-32
2024/01/19 11:48:11;;;;;;;19.00;6.50;;;;;;;-128.00;-1.00;-1.00;100346;1284;1046787;-33